Hastings, North Dakota
Current Conditions -  °F | °C
As of 3:35 AM on Wednesday 22 Oct 2014 (Local Time) from KBAC Reporting Station
Few Clouds Few Clouds  
Wind Chill: 55°   Ceiling: Unl
Heat Index: 55°   Visibility: 10mi
Dew Point: 43°   Wind: 16mph
Humidity: 63%   Direction: 150°SSE
Pressure: 29.81"   Gusts: 21mph
Location:  46.7176°N, 97.9974°W
Report Text: KBAC 220835Z AUTO 15014G18KT 10SM FEW090 13/06 A2981 RMK AO2
Loading
Personal Weather Stations






























Interactive Weather Map
Tropical Storm Tracking
New forecast layout! Learn more

10-Day Weather Forecast

Advertisements
Track Severe Weather on mobile